sensor_id;sensor_type;location;lat;lon;timestamp;pressure;altitude;pressure_sealevel;temperature;humidity
44839;BME280;30576;42.098;24.876;2023-04-21T00:02:03;99272.09;;;13.38;71.66
44839;BME280;30576;42.098;24.876;2023-04-21T00:04:28;99274.94;;;13.32;71.94
44839;BME280;30576;42.098;24.876;2023-04-21T00:06:54;99272.47;;;13.26;72.12
44839;BME280;30576;42.098;24.876;2023-04-21T00:09:22;99275.06;;;13.28;72.22
44839;BME280;30576;42.098;24.876;2023-04-21T00:11:47;99274.06;;;13.32;71.96
44839;BME280;30576;42.098;24.876;2023-04-21T00:14:12;99263.03;;;13.17;72.57
44839;BME280;30576;42.098;24.876;2023-04-21T00:16:38;99271.78;;;13.21;72.17
44839;BME280;30576;42.098;24.876;2023-04-21T00:19:03;99274.31;;;13.24;72.03
44839;BME280;30576;42.098;24.876;2023-04-21T00:21:31;99273.19;;;13.31;70.98
44839;BME280;30576;42.098;24.876;2023-04-21T00:23:56;99265.31;;;13.01;71.41
44839;BME280;30576;42.098;24.876;2023-04-21T00:26:22;99269.09;;;12.64;72.59
44839;BME280;30576;42.098;24.876;2023-04-21T00:28:47;99261.94;;;12.68;73.32
44839;BME280;30576;42.098;24.876;2023-04-21T00:31:12;99263.63;;;12.70;73.50
44839;BME280;30576;42.098;24.876;2023-04-21T00:33:38;99265.00;;;12.84;73.51
44839;BME280;30576;42.098;24.876;2023-04-21T00:36:03;99262.63;;;12.75;73.24
44839;BME280;30576;42.098;24.876;2023-04-21T00:38:28;99256.53;;;12.71;73.44
44839;BME280;30576;42.098;24.876;2023-04-21T00:40:54;99255.59;;;12.74;73.80
44839;BME280;30576;42.098;24.876;2023-04-21T00:43:19;99262.31;;;12.56;74.67
44839;BME280;30576;42.098;24.876;2023-04-21T00:45:45;99256.81;;;12.62;74.87
44839;BME280;30576;42.098;24.876;2023-04-21T00:48:11;99259.53;;;12.60;74.31
44839;BME280;30576;42.098;24.876;2023-04-21T00:50:36;99254.22;;;12.60;74.34
44839;BME280;30576;42.098;24.876;2023-04-21T00:53:01;99252.47;;;12.61;74.79
44839;BME280;30576;42.098;24.876;2023-04-21T00:55:27;99256.06;;;12.58;75.67
44839;BME280;30576;42.098;24.876;2023-04-21T00:57:53;99256.72;;;12.65;75.37
44839;BME280;30576;42.098;24.876;2023-04-21T01:00:19;99254.78;;;12.71;75.74
44839;BME280;30576;42.098;24.876;2023-04-21T01:02:44;99251.41;;;12.36;80.08
44839;BME280;30576;42.098;24.876;2023-04-21T01:05:10;99249.31;;;12.18;82.62
44839;BME280;30576;42.098;24.876;2023-04-21T01:07:36;99243.13;;;12.19;82.84
44839;BME280;30576;42.098;24.876;2023-04-21T01:10:02;99236.34;;;12.39;82.21
44839;BME280;30576;42.098;24.876;2023-04-21T01:12:27;99238.81;;;12.45;82.72
44839;BME280;30576;42.098;24.876;2023-04-21T01:14:53;99238.72;;;12.48;83.06
44839;BME280;30576;42.098;24.876;2023-04-21T01:17:18;99250.97;;;12.22;84.32
44839;BME280;30576;42.098;24.876;2023-04-21T01:19:44;99242.13;;;12.22;84.74
44839;BME280;30576;42.098;24.876;2023-04-21T01:22:10;99238.50;;;12.26;85.00
44839;BME280;30576;42.098;24.876;2023-04-21T01:24:39;99241.09;;;12.27;84.58
44839;BME280;30576;42.098;24.876;2023-04-21T01:27:13;99236.63;;;12.29;84.03
44839;BME280;30576;42.098;24.876;2023-04-21T01:29:39;99243.88;;;12.23;84.29
44839;BME280;30576;42.098;24.876;2023-04-21T01:32:08;99242.63;;;12.36;83.92
44839;BME280;30576;42.098;24.876;2023-04-21T01:34:33;99240.47;;;12.49;83.14
44839;BME280;30576;42.098;24.876;2023-04-21T01:36:59;99250.97;;;12.52;81.88
44839;BME280;30576;42.098;24.876;2023-04-21T01:39:24;99248.34;;;12.50;81.74
44839;BME280;30576;42.098;24.876;2023-04-21T01:41:50;99244.91;;;12.48;80.98
44839;BME280;30576;42.098;24.876;2023-04-21T01:44:15;99241.66;;;12.39;81.34
44839;BME280;30576;42.098;24.876;2023-04-21T01:46:40;99240.84;;;12.36;81.19
44839;BME280;30576;42.098;24.876;2023-04-21T01:49:06;99244.47;;;12.32;80.80
44839;BME280;30576;42.098;24.876;2023-04-21T01:51:31;99240.94;;;12.33;80.03
44839;BME280;30576;42.098;24.876;2023-04-21T01:53:57;99244.06;;;12.16;80.35
44839;BME280;30576;42.098;24.876;2023-04-21T01:56:22;99242.13;;;12.22;79.80
44839;BME280;30576;42.098;24.876;2023-04-21T01:58:47;99250.41;;;12.09;79.84
44839;BME280;30576;42.098;24.876;2023-04-21T02:01:13;99252.69;;;11.57;80.11
44839;BME280;30576;42.098;24.876;2023-04-21T02:03:38;99269.31;;;11.61;81.25
44839;BME280;30576;42.098;24.876;2023-04-21T02:06:04;99268.34;;;11.65;81.09
44839;BME280;30576;42.098;24.876;2023-04-21T02:08:30;99275.72;;;11.51;81.82
44839;BME280;30576;42.098;24.876;2023-04-21T02:10:55;99274.94;;;11.47;82.04
44839;BME280;30576;42.098;24.876;2023-04-21T02:13:20;99271.75;;;11.69;81.72
44839;BME280;30576;42.098;24.876;2023-04-21T02:15:45;99266.16;;;11.81;80.85
44839;BME280;30576;42.098;24.876;2023-04-21T02:18:11;99262.53;;;11.85;79.78
44839;BME280;30576;42.098;24.876;2023-04-21T02:20:38;99267.97;;;11.79;80.13
44839;BME280;30576;42.098;24.876;2023-04-21T02:23:04;99269.81;;;11.75;79.42
44839;BME280;30576;42.098;24.876;2023-04-21T02:25:29;99264.16;;;11.56;80.34
44839;BME280;30576;42.098;24.876;2023-04-21T02:27:55;99269.34;;;11.59;80.29
44839;BME280;30576;42.098;24.876;2023-04-21T02:30:20;99263.50;;;11.81;80.17
44839;BME280;30576;42.098;24.876;2023-04-21T02:32:45;99257.59;;;11.71;79.88
44839;BME280;30576;42.098;24.876;2023-04-21T02:35:11;99258.13;;;11.84;79.15
44839;BME280;30576;42.098;24.876;2023-04-21T02:37:36;99248.50;;;11.81;79.58
44839;BME280;30576;42.098;24.876;2023-04-21T02:40:01;99261.81;;;11.78;79.10
44839;BME280;30576;42.098;24.876;2023-04-21T02:42:27;99254.84;;;11.76;78.90
44839;BME280;30576;42.098;24.876;2023-04-21T02:44:52;99260.91;;;11.79;78.35
44839;BME280;30576;42.098;24.876;2023-04-21T02:47:19;99258.66;;;11.64;79.03
44839;BME280;30576;42.098;24.876;2023-04-21T02:49:44;99261.63;;;11.52;78.21
44839;BME280;30576;42.098;24.876;2023-04-21T02:52:09;99252.16;;;11.43;76.61
44839;BME280;30576;42.098;24.876;2023-04-21T02:54:35;99254.69;;;11.11;78.01
44839;BME280;30576;42.098;24.876;2023-04-21T02:57:00;99249.56;;;11.05;77.89
44839;BME280;30576;42.098;24.876;2023-04-21T02:59:26;99259.66;;;10.88;78.24
44839;BME280;30576;42.098;24.876;2023-04-21T03:01:51;99260.44;;;10.54;79.71
44839;BME280;30576;42.098;24.876;2023-04-21T03:04:16;99255.81;;;10.21;80.71
44839;BME280;30576;42.098;24.876;2023-04-21T03:06:43;99256.47;;;10.31;80.29
44839;BME280;30576;42.098;24.876;2023-04-21T03:09:09;99251.97;;;9.93;81.26
44839;BME280;30576;42.098;24.876;2023-04-21T03:11:34;99253.69;;;9.95;82.13
44839;BME280;30576;42.098;24.876;2023-04-21T03:14:00;99256.41;;;9.91;82.97
44839;BME280;30576;42.098;24.876;2023-04-21T03:16:25;99257.66;;;10.16;82.43
44839;BME280;30576;42.098;24.876;2023-04-21T03:18:51;99256.72;;;10.19;82.33
44839;BME280;30576;42.098;24.876;2023-04-21T03:21:17;99262.22;;;10.08;82.99
44839;BME280;30576;42.098;24.876;2023-04-21T03:23:42;99265.84;;;10.02;83.05
44839;BME280;30576;42.098;24.876;2023-04-21T03:26:08;99263.94;;;10.09;83.80
44839;BME280;30576;42.098;24.876;2023-04-21T03:28:34;99263.81;;;10.17;83.37
44839;BME280;30576;42.098;24.876;2023-04-21T03:30:59;99261.19;;;10.15;82.78
44839;BME280;30576;42.098;24.876;2023-04-21T03:33:24;99272.69;;;10.11;82.82
44839;BME280;30576;42.098;24.876;2023-04-21T03:35:49;99265.59;;;10.15;83.58
44839;BME280;30576;42.098;24.876;2023-04-21T03:38:15;99279.72;;;10.12;84.01
44839;BME280;30576;42.098;24.876;2023-04-21T03:40:40;99276.75;;;10.28;83.76
44839;BME280;30576;42.098;24.876;2023-04-21T03:43:06;99278.13;;;10.49;83.69
44839;BME280;30576;42.098;24.876;2023-04-21T03:45:31;99284.38;;;10.84;82.90
44839;BME280;30576;42.098;24.876;2023-04-21T03:47:58;99287.94;;;10.81;82.15
44839;BME280;30576;42.098;24.876;2023-04-21T03:50:24;99290.72;;;10.75;82.11
44839;BME280;30576;42.098;24.876;2023-04-21T03:52:49;99291.22;;;10.53;82.53
44839;BME280;30576;42.098;24.876;2023-04-21T03:55:14;99292.94;;;10.54;82.33
44839;BME280;30576;42.098;24.876;2023-04-21T03:57:40;99300.22;;;10.84;81.90
44839;BME280;30576;42.098;24.876;2023-04-21T04:00:06;99293.78;;;10.96;80.54
44839;BME280;30576;42.098;24.876;2023-04-21T04:02:33;99299.72;;;11.05;79.55
44839;BME280;30576;42.098;24.876;2023-04-21T04:04:58;99294.28;;;11.11;79.98
44839;BME280;30576;42.098;24.876;2023-04-21T04:07:23;99288.00;;;11.17;79.40
44839;BME280;30576;42.098;24.876;2023-04-21T04:09:50;99296.03;;;11.13;79.27
44839;BME280;30576;42.098;24.876;2023-04-21T04:12:15;99289.81;;;11.15;78.68
44839;BME280;30576;42.098;24.876;2023-04-21T04:14:40;99286.91;;;10.88;78.70
44839;BME280;30576;42.098;24.876;2023-04-21T04:17:06;99295.84;;;10.81;79.77
44839;BME280;30576;42.098;24.876;2023-04-21T04:19:31;99301.19;;;10.78;80.65
44839;BME280;30576;42.098;24.876;2023-04-21T04:22:00;99295.97;;;10.77;81.55
44839;BME280;30576;42.098;24.876;2023-04-21T04:24:25;99294.84;;;10.88;81.12
44839;BME280;30576;42.098;24.876;2023-04-21T04:26:51;99291.47;;;10.82;81.18
44839;BME280;30576;42.098;24.876;2023-04-21T04:29:17;99296.72;;;10.83;81.69
44839;BME280;30576;42.098;24.876;2023-04-21T04:31:43;99294.00;;;10.86;82.08
44839;BME280;30576;42.098;24.876;2023-04-21T04:34:09;99297.72;;;10.78;83.22
44839;BME280;30576;42.098;24.876;2023-04-21T04:36:35;99297.47;;;10.88;84.00
44839;BME280;30576;42.098;24.876;2023-04-21T04:39:01;99298.13;;;10.98;83.83
44839;BME280;30576;42.098;24.876;2023-04-21T04:41:28;99313.38;;;11.23;83.21
44839;BME280;30576;42.098;24.876;2023-04-21T04:43:54;99304.00;;;11.47;82.98
44839;BME280;30576;42.098;24.876;2023-04-21T04:46:24;99313.28;;;11.63;82.31
44839;BME280;30576;42.098;24.876;2023-04-21T04:48:49;99306.75;;;11.77;82.08
44839;BME280;30576;42.098;24.876;2023-04-21T04:51:15;99312.50;;;11.96;81.34
44839;BME280;30576;42.098;24.876;2023-04-21T04:53:41;99307.97;;;11.99;81.04
44839;BME280;30576;42.098;24.876;2023-04-21T04:56:06;99303.28;;;12.09;81.07
44839;BME280;30576;42.098;24.876;2023-04-21T04:58:31;99288.38;;;12.08;80.99
44839;BME280;30576;42.098;24.876;2023-04-21T05:00:58;99316.47;;;12.44;80.11
44839;BME280;30576;42.098;24.876;2023-04-21T05:03:23;99306.75;;;12.44;79.80
44839;BME280;30576;42.098;24.876;2023-04-21T05:05:48;99322.66;;;12.43;79.80
44839;BME280;30576;42.098;24.876;2023-04-21T05:08:13;99305.66;;;12.51;79.16
44839;BME280;30576;42.098;24.876;2023-04-21T05:10:39;99312.66;;;12.52;79.66
44839;BME280;30576;42.098;24.876;2023-04-21T05:13:04;99306.75;;;12.44;80.74
44839;BME280;30576;42.098;24.876;2023-04-21T05:15:30;99313.56;;;12.20;82.21
44839;BME280;30576;42.098;24.876;2023-04-21T05:17:56;99316.44;;;12.12;82.59
44839;BME280;30576;42.098;24.876;2023-04-21T05:20:21;99307.94;;;12.64;81.60
44839;BME280;30576;42.098;24.876;2023-04-21T05:22:47;99309.94;;;12.56;80.23
44839;BME280;30576;42.098;24.876;2023-04-21T05:25:12;99308.22;;;12.54;80.72
44839;BME280;30576;42.098;24.876;2023-04-21T05:27:39;99301.03;;;12.58;79.54
44839;BME280;30576;42.098;24.876;2023-04-21T05:30:05;99301.50;;;13.02;79.52
44839;BME280;30576;42.098;24.876;2023-04-21T05:32:30;99295.72;;;13.18;78.03
44839;BME280;30576;42.098;24.876;2023-04-21T05:34:56;99300.13;;;13.46;77.00
44839;BME280;30576;42.098;24.876;2023-04-21T05:37:21;99299.81;;;13.82;74.60
44839;BME280;30576;42.098;24.876;2023-04-21T05:39:46;99298.63;;;13.90;74.08
44839;BME280;30576;42.098;24.876;2023-04-21T05:42:12;99298.41;;;13.96;72.79
44839;BME280;30576;42.098;24.876;2023-04-21T05:44:37;99302.78;;;14.23;71.62
44839;BME280;30576;42.098;24.876;2023-04-21T05:47:03;99287.69;;;14.48;69.93
44839;BME280;30576;42.098;24.876;2023-04-21T05:49:28;99299.00;;;14.54;69.68
44839;BME280;30576;42.098;24.876;2023-04-21T05:51:54;99285.50;;;14.83;69.72
44839;BME280;30576;42.098;24.876;2023-04-21T05:54:19;99294.59;;;15.22;66.99
44839;BME280;30576;42.098;24.876;2023-04-21T05:56:44;99290.44;;;15.59;66.43
44839;BME280;30576;42.098;24.876;2023-04-21T05:59:11;99285.75;;;15.44;62.46
44839;BME280;30576;42.098;24.876;2023-04-21T06:01:36;99289.56;;;15.81;62.07
44839;BME280;30576;42.098;24.876;2023-04-21T06:04:01;99287.34;;;15.90;60.63
44839;BME280;30576;42.098;24.876;2023-04-21T06:06:27;99287.88;;;16.19;60.82
44839;BME280;30576;42.098;24.876;2023-04-21T06:08:52;99287.56;;;16.46;57.81
44839;BME280;30576;42.098;24.876;2023-04-21T06:11:18;99286.94;;;16.60;55.59
44839;BME280;30576;42.098;24.876;2023-04-21T06:13:43;99286.84;;;16.42;54.53
44839;BME280;30576;42.098;24.876;2023-04-21T06:16:08;99282.09;;;16.68;54.55
44839;BME280;30576;42.098;24.876;2023-04-21T06:18:34;99293.19;;;16.78;51.97
44839;BME280;30576;42.098;24.876;2023-04-21T06:20:59;99290.56;;;16.97;51.57
44839;BME280;30576;42.098;24.876;2023-04-21T06:23:25;99271.25;;;17.28;52.23
44839;BME280;30576;42.098;24.876;2023-04-21T06:26:02;99276.69;;;16.90;50.75
44839;BME280;30576;42.098;24.876;2023-04-21T06:28:29;99267.66;;;16.93;51.72
44839;BME280;30576;42.098;24.876;2023-04-21T06:30:55;99271.03;;;17.33;49.89
44839;BME280;30576;42.098;24.876;2023-04-21T06:33:20;99274.97;;;17.43;50.35
44839;BME280;30576;42.098;24.876;2023-04-21T06:35:45;99274.16;;;17.24;50.66
44839;BME280;30576;42.098;24.876;2023-04-21T06:38:11;99271.75;;;17.00;50.07
44839;BME280;30576;42.098;24.876;2023-04-21T06:40:36;99273.97;;;17.09;51.66
44839;BME280;30576;42.098;24.876;2023-04-21T06:43:01;99261.56;;;17.45;50.49
44839;BME280;30576;42.098;24.876;2023-04-21T06:45:27;99259.28;;;17.37;49.67
44839;BME280;30576;42.098;24.876;2023-04-21T06:47:52;99258.75;;;17.65;48.89
44839;BME280;30576;42.098;24.876;2023-04-21T06:50:17;99262.69;;;17.58;47.42
44839;BME280;30576;42.098;24.876;2023-04-21T06:52:43;99256.72;;;17.88;47.41
44839;BME280;30576;42.098;24.876;2023-04-21T06:55:08;99256.97;;;18.34;47.11
44839;BME280;30576;42.098;24.876;2023-04-21T06:57:33;99257.13;;;18.15;47.35
44839;BME280;30576;42.098;24.876;2023-04-21T06:59:59;99258.38;;;18.08;47.43
44839;BME280;30576;42.098;24.876;2023-04-21T07:02:24;99267.47;;;18.21;46.41
44839;BME280;30576;42.098;24.876;2023-04-21T07:04:49;99265.88;;;18.17;46.22
44839;BME280;30576;42.098;24.876;2023-04-21T07:07:15;99270.13;;;18.04;46.90
44839;BME280;30576;42.098;24.876;2023-04-21T07:09:40;99267.78;;;18.15;46.71
44839;BME280;30576;42.098;24.876;2023-04-21T07:12:05;99273.81;;;18.19;46.16
44839;BME280;30576;42.098;24.876;2023-04-21T07:14:31;99274.34;;;18.25;45.83
44839;BME280;30576;42.098;24.876;2023-04-21T07:16:56;99272.56;;;18.26;45.34
44839;BME280;30576;42.098;24.876;2023-04-21T07:19:22;99269.22;;;18.88;46.16
44839;BME280;30576;42.098;24.876;2023-04-21T07:21:47;99272.91;;;19.01;45.33
44839;BME280;30576;42.098;24.876;2023-04-21T07:24:12;99265.47;;;18.58;44.17
44839;BME280;30576;42.098;24.876;2023-04-21T07:26:38;99266.31;;;18.59;44.61
44839;BME280;30576;42.098;24.876;2023-04-21T07:29:03;99265.63;;;18.55;45.45
44839;BME280;30576;42.098;24.876;2023-04-21T07:31:28;99264.16;;;18.66;46.76
44839;BME280;30576;42.098;24.876;2023-04-21T07:33:53;99260.41;;;18.86;46.52
44839;BME280;30576;42.098;24.876;2023-04-21T07:36:19;99261.03;;;18.91;44.79
44839;BME280;30576;42.098;24.876;2023-04-21T07:38:44;99260.81;;;18.62;46.45
44839;BME280;30576;42.098;24.876;2023-04-21T07:41:10;99258.63;;;19.02;45.39
44839;BME280;30576;42.098;24.876;2023-04-21T07:43:55;99257.06;;;18.98;45.66
44839;BME280;30576;42.098;24.876;2023-04-21T07:46:21;99255.53;;;18.94;44.61
44839;BME280;30576;42.098;24.876;2023-04-21T07:48:54;99250.66;;;19.32;45.84
44839;BME280;30576;42.098;24.876;2023-04-21T07:51:19;99255.09;;;19.48;44.86
44839;BME280;30576;42.098;24.876;2023-04-21T07:53:44;99262.16;;;19.19;43.09
44839;BME280;30576;42.098;24.876;2023-04-21T07:56:10;99262.38;;;19.30;43.82
44839;BME280;30576;42.098;24.876;2023-04-21T07:58:36;99260.91;;;19.40;46.66
44839;BME280;30576;42.098;24.876;2023-04-21T08:01:02;99251.13;;;20.00;44.67
44839;BME280;30576;42.098;24.876;2023-04-21T08:03:27;99262.16;;;20.10;45.70
44839;BME280;30576;42.098;24.876;2023-04-21T08:05:53;99266.63;;;20.09;42.86
44839;BME280;30576;42.098;24.876;2023-04-21T08:08:18;99251.41;;;19.81;43.52
44839;BME280;30576;42.098;24.876;2023-04-21T08:10:45;99248.44;;;19.85;43.16
44839;BME280;30576;42.098;24.876;2023-04-21T08:13:11;99254.88;;;19.67;43.00
44839;BME280;30576;42.098;24.876;2023-04-21T08:15:36;99252.22;;;19.97;45.37
44839;BME280;30576;42.098;24.876;2023-04-21T08:18:01;99250.38;;;19.67;41.22
44839;BME280;30576;42.098;24.876;2023-04-21T08:20:27;99244.84;;;20.01;44.22
44839;BME280;30576;42.098;24.876;2023-04-21T08:22:52;99244.94;;;20.57;45.12
44839;BME280;30576;42.098;24.876;2023-04-21T08:25:18;99246.09;;;20.53;43.38
44839;BME280;30576;42.098;24.876;2023-04-21T08:27:43;99240.53;;;20.42;41.59
44839;BME280;30576;42.098;24.876;2023-04-21T08:30:08;99250.00;;;20.18;41.50
44839;BME280;30576;42.098;24.876;2023-04-21T08:32:34;99242.28;;;20.43;43.70
44839;BME280;30576;42.098;24.876;2023-04-21T08:34:59;99244.81;;;20.87;40.78
44839;BME280;30576;42.098;24.876;2023-04-21T08:37:25;99245.53;;;20.33;40.79
44839;BME280;30576;42.098;24.876;2023-04-21T08:39:50;99237.56;;;20.46;41.44
44839;BME280;30576;42.098;24.876;2023-04-21T08:42:16;99246.38;;;20.19;39.60
44839;BME280;30576;42.098;24.876;2023-04-21T08:44:42;99240.72;;;20.38;41.55
44839;BME280;30576;42.098;24.876;2023-04-21T08:47:10;99232.28;;;20.88;43.26
44839;BME280;30576;42.098;24.876;2023-04-21T08:49:36;99230.16;;;20.93;40.35
44839;BME280;30576;42.098;24.876;2023-04-21T08:52:02;99235.72;;;20.90;40.68
44839;BME280;30576;42.098;24.876;2023-04-21T08:54:27;99228.03;;;20.98;40.28
44839;BME280;30576;42.098;24.876;2023-04-21T08:56:53;99234.78;;;20.77;38.09
44839;BME280;30576;42.098;24.876;2023-04-21T08:59:18;99227.59;;;20.77;40.43
44839;BME280;30576;42.098;24.876;2023-04-21T09:04:28;99223.59;;;20.84;40.62
44839;BME280;30576;42.098;24.876;2023-04-21T09:06:54;99224.22;;;21.42;41.87
44839;BME280;30576;42.098;24.876;2023-04-21T09:09:20;99220.13;;;21.37;39.84
44839;BME280;30576;42.098;24.876;2023-04-21T09:11:53;99217.34;;;21.38;38.99
44839;BME280;30576;42.098;24.876;2023-04-21T09:14:18;99211.66;;;21.83;40.06
44839;BME280;30576;42.098;24.876;2023-04-21T09:16:44;99211.31;;;21.35;38.54
44839;BME280;30576;42.098;24.876;2023-04-21T09:19:13;99204.28;;;21.19;38.54
44839;BME280;30576;42.098;24.876;2023-04-21T09:21:42;99205.28;;;21.18;38.65
44839;BME280;30576;42.098;24.876;2023-04-21T09:24:08;99197.31;;;20.89;37.99
44839;BME280;30576;42.098;24.876;2023-04-21T09:26:33;99196.97;;;21.08;40.32
44839;BME280;30576;42.098;24.876;2023-04-21T09:28:58;99185.56;;;20.92;37.37
44839;BME280;30576;42.098;24.876;2023-04-21T09:31:24;99190.34;;;21.14;39.50
44839;BME280;30576;42.098;24.876;2023-04-21T09:33:50;99191.75;;;21.20;38.67
44839;BME280;30576;42.098;24.876;2023-04-21T09:36:23;99185.16;;;21.38;39.30
44839;BME280;30576;42.098;24.876;2023-04-21T09:38:49;99180.97;;;21.47;40.65
44839;BME280;30576;42.098;24.876;2023-04-21T09:41:16;99178.06;;;21.37;36.36
44839;BME280;30576;42.098;24.876;2023-04-21T09:43:41;99185.41;;;20.81;36.67
44839;BME280;30576;42.098;24.876;2023-04-21T09:46:07;99175.34;;;21.24;38.37
44839;BME280;30576;42.098;24.876;2023-04-21T09:48:33;99173.50;;;21.12;36.98
44839;BME280;30576;42.098;24.876;2023-04-21T09:50:59;99172.69;;;21.37;42.06
44839;BME280;30576;42.098;24.876;2023-04-21T09:53:26;99174.69;;;21.21;35.67
44839;BME280;30576;42.098;24.876;2023-04-21T09:55:52;99163.75;;;21.24;37.62
44839;BME280;30576;42.098;24.876;2023-04-21T09:58:21;99148.97;;;21.31;35.98
44839;BME280;30576;42.098;24.876;2023-04-21T10:00:48;99179.84;;;21.24;35.22
44839;BME280;30576;42.098;24.876;2023-04-21T10:03:15;99158.66;;;21.34;34.84
44839;BME280;30576;42.098;24.876;2023-04-21T10:05:42;99161.44;;;21.32;36.09
44839;BME280;30576;42.098;24.876;2023-04-21T10:08:07;99158.81;;;21.18;35.31
44839;BME280;30576;42.098;24.876;2023-04-21T10:10:35;99156.38;;;21.40;39.14
44839;BME280;30576;42.098;24.876;2023-04-21T10:13:00;99159.88;;;21.55;37.71
44839;BME280;30576;42.098;24.876;2023-04-21T10:20:53;99154.75;;;21.25;34.68
44839;BME280;30576;42.098;24.876;2023-04-21T10:23:28;99136.16;;;21.62;41.42
44839;BME280;30576;42.098;24.876;2023-04-21T10:25:57;99148.03;;;22.22;40.69
44839;BME280;30576;42.098;24.876;2023-04-21T10:28:37;99133.31;;;22.41;37.54
44839;BME280;30576;42.098;24.876;2023-04-21T10:31:16;99133.31;;;22.28;37.96
44839;BME280;30576;42.098;24.876;2023-04-21T10:33:41;99141.06;;;22.07;36.35
44839;BME280;30576;42.098;24.876;2023-04-21T10:36:09;99146.25;;;21.71;34.88
44839;BME280;30576;42.098;24.876;2023-04-21T10:38:40;99140.13;;;21.56;34.32
44839;BME280;30576;42.098;24.876;2023-04-21T10:43:50;99122.00;;;21.60;35.74
44839;BME280;30576;42.098;24.876;2023-04-21T10:49:03;99133.91;;;21.56;32.87
44839;BME280;30576;42.098;24.876;2023-04-21T10:51:29;99134.22;;;21.90;33.15
44839;BME280;30576;42.098;24.876;2023-04-21T10:53:56;99125.63;;;21.72;32.17
44839;BME280;30576;42.098;24.876;2023-04-21T10:56:21;99128.63;;;21.93;34.69
44839;BME280;30576;42.098;24.876;2023-04-21T10:58:48;99122.03;;;22.35;35.76
44839;BME280;30576;42.098;24.876;2023-04-21T11:01:13;99126.91;;;22.55;32.50
44839;BME280;30576;42.098;24.876;2023-04-21T11:03:39;99119.00;;;22.27;31.51
44839;BME280;30576;42.098;24.876;2023-04-21T11:06:14;99134.41;;;22.62;32.78
44839;BME280;30576;42.098;24.876;2023-04-21T11:08:55;99121.25;;;22.46;33.63
44839;BME280;30576;42.098;24.876;2023-04-21T11:11:21;99124.38;;;22.77;32.21
44839;BME280;30576;42.098;24.876;2023-04-21T11:13:47;99120.88;;;22.88;30.10
44839;BME280;30576;42.098;24.876;2023-04-21T11:16:12;99118.19;;;22.64;32.43
44839;BME280;30576;42.098;24.876;2023-04-21T11:18:42;99120.38;;;21.96;35.83
44839;BME280;30576;42.098;24.876;2023-04-21T11:23:33;99134.63;;;21.45;37.01
44839;BME280;30576;42.098;24.876;2023-04-21T11:25:59;99137.28;;;21.32;36.80
44839;BME280;30576;42.098;24.876;2023-04-21T11:28:25;99135.19;;;21.10;38.29
44839;BME280;30576;42.098;24.876;2023-04-21T11:30:51;99133.69;;;21.06;37.42
44839;BME280;30576;42.098;24.876;2023-04-21T11:33:16;99131.94;;;21.32;38.50
44839;BME280;30576;42.098;24.876;2023-04-21T11:35:42;99127.47;;;21.58;37.43
44839;BME280;30576;42.098;24.876;2023-04-21T11:38:07;99127.47;;;21.71;37.33
44839;BME280;30576;42.098;24.876;2023-04-21T11:40:48;99125.59;;;22.23;37.00
44839;BME280;30576;42.098;24.876;2023-04-21T11:43:13;99126.41;;;22.74;35.78
44839;BME280;30576;42.098;24.876;2023-04-21T11:45:39;99130.34;;;22.57;34.75
44839;BME280;30576;42.098;24.876;2023-04-21T11:48:14;99123.00;;;22.34;33.34
44839;BME280;30576;42.098;24.876;2023-04-21T11:50:39;99126.44;;;22.37;32.28
44839;BME280;30576;42.098;24.876;2023-04-21T11:53:05;99119.47;;;23.06;32.77
44839;BME280;30576;42.098;24.876;2023-04-21T11:55:30;99120.28;;;23.20;33.09
44839;BME280;30576;42.098;24.876;2023-04-21T11:57:56;99121.44;;;23.40;33.12
44839;BME280;30576;42.098;24.876;2023-04-21T12:00:21;99121.88;;;23.22;31.95
44839;BME280;30576;42.098;24.876;2023-04-21T12:02:53;99122.41;;;23.03;32.08
44839;BME280;30576;42.098;24.876;2023-04-21T12:05:20;99119.34;;;22.73;33.69
44839;BME280;30576;42.098;24.876;2023-04-21T12:07:46;99111.22;;;22.97;33.85
44839;BME280;30576;42.098;24.876;2023-04-21T12:10:19;99117.09;;;22.66;31.61
44839;BME280;30576;42.098;24.876;2023-04-21T12:12:45;99118.13;;;22.52;33.75
44839;BME280;30576;42.098;24.876;2023-04-21T12:15:11;99120.09;;;22.86;33.20
44839;BME280;30576;42.098;24.876;2023-04-21T12:17:43;99119.94;;;22.52;33.33
44839;BME280;30576;42.098;24.876;2023-04-21T12:20:09;99113.59;;;22.03;33.29
44839;BME280;30576;42.098;24.876;2023-04-21T12:22:35;99109.22;;;21.89;34.73
44839;BME280;30576;42.098;24.876;2023-04-21T12:25:00;99101.53;;;22.22;33.23
44839;BME280;30576;42.098;24.876;2023-04-21T12:27:26;99099.94;;;22.56;33.31
44839;BME280;30576;42.098;24.876;2023-04-21T12:29:51;99093.53;;;22.94;33.92
44839;BME280;30576;42.098;24.876;2023-04-21T12:32:17;99100.78;;;23.40;33.06
44839;BME280;30576;42.098;24.876;2023-04-21T12:34:43;99098.38;;;23.13;32.03
44839;BME280;30576;42.098;24.876;2023-04-21T12:37:08;99096.47;;;23.02;32.88
44839;BME280;30576;42.098;24.876;2023-04-21T12:39:33;99097.00;;;22.59;34.48
44839;BME280;30576;42.098;24.876;2023-04-21T12:41:59;99092.91;;;23.26;33.71
44839;BME280;30576;42.098;24.876;2023-04-21T12:44:25;99094.03;;;23.46;33.75
44839;BME280;30576;42.098;24.876;2023-04-21T12:46:51;99074.94;;;23.27;30.99
44839;BME280;30576;42.098;24.876;2023-04-21T12:49:17;99090.38;;;23.47;32.69
44839;BME280;30576;42.098;24.876;2023-04-21T12:51:42;99094.25;;;22.96;34.01
44839;BME280;30576;42.098;24.876;2023-04-21T12:54:08;99095.75;;;22.52;31.85
44839;BME280;30576;42.098;24.876;2023-04-21T12:56:34;99099.47;;;22.25;34.51
44839;BME280;30576;42.098;24.876;2023-04-21T12:59:00;99107.78;;;21.45;34.72
44839;BME280;30576;42.098;24.876;2023-04-21T13:01:25;99105.13;;;20.92;36.74